Tagish, Canada
Current Conditions -  °F | °C
As of 8:00 PM on Tuesday 21 Oct 2014 (Local Time) from CYXY Reporting Station
Overcast Overcast  
Wind Chill: 36°   Ceiling: 4500
Heat Index: 36°   Visibility: 15mi
Dew Point: 30°   Wind: 3mph
Humidity: 81%   Direction: 280°W
Pressure: 29.29"   Gusts: NA
Location:  60.3°N, 134.27°W
Report Text: CYXY 220300Z 28003KT 15SM BKN045 OVC160 02/M01 A2929 RMK SC7AC1 SLP951
Loading
Personal Weather Stations






























Interactive Weather Map
Tropical Storm Tracking
New forecast layout! Learn more

10-Day Weather Forecast

Advertisements
Track Severe Weather on mobile